createdAt,value
2023-03-18T00:00:41.364Z,1.48
2023-03-18T00:03:17.417Z,1.46
2023-03-18T00:05:44.984Z,1.43
2023-03-18T00:08:11.682Z,1.40
2023-03-18T00:10:39.025Z,1.33
2023-03-18T00:13:05.762Z,1.23
2023-03-18T00:15:32.243Z,1.14
2023-03-18T00:17:59.203Z,1.10
2023-03-18T00:20:28.406Z,1.08
2023-03-18T00:22:56.859Z,1.05
2023-03-18T00:25:23.278Z,1.05
2023-03-18T00:27:50.215Z,1.03
2023-03-18T00:30:17.904Z,1.02
2023-03-18T00:32:44.344Z,1.02
2023-03-18T00:35:11.576Z,1.02
2023-03-18T00:37:38.105Z,1.01
2023-03-18T00:40:09.633Z,1.02
2023-03-18T00:42:39.423Z,1.02
2023-03-18T00:45:08.388Z,1.04
2023-03-18T00:47:35.268Z,1.01
2023-03-18T00:50:02.688Z,0.96
2023-03-18T00:52:31.698Z,0.94
2023-03-18T00:55:00.171Z,0.93
2023-03-18T00:57:28.779Z,0.91
2023-03-18T00:59:56.441Z,0.89
2023-03-18T01:02:23.051Z,0.87
2023-03-18T01:04:50.530Z,0.84
2023-03-18T01:07:17.471Z,0.80
2023-03-18T01:09:44.482Z,0.75
2023-03-18T01:12:12.088Z,0.70
2023-03-18T01:14:39.410Z,0.65
2023-03-18T01:17:07.248Z,0.61
2023-03-18T01:19:34.175Z,0.61
2023-03-18T01:22:01.883Z,0.61
2023-03-18T01:24:28.853Z,0.60
2023-03-18T01:26:56.272Z,0.56
2023-03-18T01:29:23.159Z,0.53
2023-03-18T01:31:50.796Z,0.52
2023-03-18T01:34:18.022Z,0.51
2023-03-18T01:36:45.639Z,0.50
2023-03-18T01:39:12.625Z,0.49
2023-03-18T01:41:39.710Z,0.47
2023-03-18T01:44:12.862Z,0.45
2023-03-18T01:46:44.293Z,0.42
2023-03-18T01:49:40.899Z,0.41
2023-03-18T01:52:16.325Z,0.41
2023-03-18T01:54:48.972Z,0.39
2023-03-18T01:57:17.262Z,0.38
2023-03-18T01:59:47.060Z,0.38
2023-03-18T02:02:15.700Z,0.35
2023-03-18T02:04:46.993Z,0.35
2023-03-18T02:07:19.367Z,0.34
2023-03-18T02:09:47.443Z,0.32
2023-03-18T02:12:19.063Z,0.32
2023-03-18T02:14:46.092Z,0.32
2023-03-18T02:17:18.742Z,0.30
2023-03-18T02:19:54.247Z,0.28
2023-03-18T02:22:33.489Z,0.21
2023-03-18T02:25:45.337Z,0.18
2023-03-18T02:28:17.288Z,0.19
2023-03-18T02:30:48.342Z,0.21
2023-03-18T02:33:17.348Z,0.21
2023-03-18T02:35:46.804Z,0.19
2023-03-18T02:38:13.420Z,0.16
2023-03-18T02:40:41.977Z,0.13
2023-03-18T02:43:16.364Z,0.13
2023-03-18T02:46:12.293Z,0.11
2023-03-18T02:48:42.721Z,0.11
2023-03-18T02:51:10.471Z,0.10
2023-03-18T02:53:37.683Z,0.11
2023-03-18T02:56:05.151Z,0.08
2023-03-18T02:58:32.138Z,0.05
2023-03-18T03:00:59.107Z,0.03
2023-03-18T03:03:26.050Z,0.05
2023-03-18T03:05:53.172Z,0.06
2023-03-18T03:08:19.789Z,0.06
2023-03-18T03:10:46.645Z,0.08
2023-03-18T03:13:13.103Z,0.09
2023-03-18T03:15:40.090Z,0.08
2023-03-18T03:18:07.023Z,0.09
2023-03-18T03:20:34.977Z,0.10
2023-03-18T03:23:03.379Z,0.09
2023-03-18T03:25:30.289Z,0.09
2023-03-18T03:27:56.947Z,0.08
2023-03-18T03:30:23.770Z,0.09
2023-03-18T03:32:51.075Z,0.10
2023-03-18T03:35:18.956Z,0.08
2023-03-18T03:37:45.477Z,0.04
2023-03-18T03:40:15.398Z,0.03
2023-03-18T03:42:42.523Z,0.03
2023-03-18T03:45:09.657Z,0.01
2023-03-18T03:47:36.327Z,0.01
2023-03-18T03:50:03.392Z,0.01
2023-03-18T03:52:29.867Z,0.01
2023-03-18T03:54:56.320Z,-0.02
2023-03-18T03:57:26.492Z,-0.05
2023-03-18T03:59:53.571Z,-0.08
2023-03-18T04:02:23.146Z,-0.11
2023-03-18T04:04:50.998Z,-0.13
2023-03-18T04:07:17.614Z,-0.15
2023-03-18T04:09:44.058Z,-0.19
2023-03-18T04:12:11.423Z,-0.21
2023-03-18T04:14:38.757Z,-0.25
2023-03-18T04:17:05.723Z,-0.26
2023-03-18T04:19:33.281Z,-0.28
2023-03-18T04:21:59.678Z,-0.29
2023-03-18T04:24:26.697Z,-0.29
2023-03-18T04:26:53.507Z,-0.28
2023-03-18T04:29:20.392Z,-0.28
2023-03-18T04:31:46.986Z,-0.30
2023-03-18T04:34:13.401Z,-0.30
2023-03-18T04:36:39.996Z,-0.30
2023-03-18T04:39:08.832Z,-0.30
2023-03-18T04:41:39.142Z,-0.31
2023-03-18T04:44:05.888Z,-0.31
2023-03-18T04:46:32.584Z,-0.30
2023-03-18T04:48:59.169Z,-0.27
2023-03-18T04:51:25.801Z,-0.26
2023-03-18T04:53:53.105Z,-0.27
2023-03-18T04:56:20.140Z,-0.30
2023-03-18T04:58:47.231Z,-0.33
2023-03-18T05:01:14.311Z,-0.35
2023-03-18T05:03:41.125Z,-0.35
2023-03-18T05:06:08.916Z,-0.34
2023-03-18T05:08:35.362Z,-0.32
2023-03-18T05:11:01.742Z,-0.30
2023-03-18T05:13:28.642Z,-0.27
2023-03-18T05:15:55.039Z,-0.22
2023-03-18T05:18:21.393Z,-0.19
2023-03-18T05:20:47.795Z,-0.14
2023-03-18T05:23:14.293Z,-0.09
2023-03-18T05:25:40.958Z,-0.05
2023-03-18T05:28:08.851Z,-0.02
2023-03-18T05:30:39.896Z,0.03
2023-03-18T05:33:07.239Z,0.05
2023-03-18T05:35:34.068Z,0.07
2023-03-18T05:38:01.161Z,0.11
2023-03-18T05:40:28.242Z,0.17
2023-03-18T05:42:56.478Z,0.24
2023-03-18T05:45:24.856Z,0.33
2023-03-18T05:47:52.245Z,0.41
2023-03-18T05:50:29.456Z,0.49
2023-03-18T05:52:56.222Z,0.56
2023-03-18T05:55:22.852Z,0.63
2023-03-18T05:57:49.786Z,0.70
2023-03-18T06:00:18.095Z,0.75
2023-03-18T06:02:45.687Z,0.78
2023-03-18T06:05:12.785Z,0.83
2023-03-18T06:07:39.237Z,0.89
2023-03-18T06:10:07.327Z,0.95
2023-03-18T06:12:35.373Z,1.02
2023-03-18T06:15:03.072Z,1.10
2023-03-18T06:17:29.499Z,1.17
2023-03-18T06:19:56.537Z,1.26
2023-03-18T06:22:22.964Z,1.36
2023-03-18T06:24:49.421Z,1.46
2023-03-18T06:27:16.482Z,1.59
2023-03-18T06:29:43.557Z,1.72
2023-03-18T06:32:10.170Z,1.84
2023-03-18T06:34:37.287Z,1.95
2023-03-18T06:37:04.377Z,2.08
2023-03-18T06:39:31.242Z,2.22
2023-03-18T06:41:58.250Z,2.35
2023-03-18T06:44:24.696Z,2.45
2023-03-18T06:46:51.109Z,2.55
2023-03-18T06:49:17.768Z,2.66
2023-03-18T06:51:44.827Z,2.76
2023-03-18T06:54:11.838Z,2.84
2023-03-18T06:56:39.469Z,2.93
2023-03-18T06:59:07.364Z,3.02
2023-03-18T07:01:35.443Z,3.09
2023-03-18T07:04:06.053Z,3.18
2023-03-18T07:06:33.095Z,3.26
2023-03-18T07:09:00.596Z,3.36
2023-03-18T07:11:27.538Z,3.45
2023-03-18T07:13:54.079Z,3.54
2023-03-18T07:16:20.757Z,3.62
2023-03-18T07:18:48.132Z,3.69
2023-03-18T07:21:16.057Z,3.77
2023-03-18T07:23:42.513Z,3.85
2023-03-18T07:26:09.774Z,3.94
2023-03-18T07:28:36.190Z,4.03
2023-03-18T07:31:03.352Z,4.12
2023-03-18T07:33:30.268Z,4.22
2023-03-18T07:35:57.102Z,4.30
2023-03-18T07:38:23.733Z,4.40
2023-03-18T07:40:50.196Z,4.51
2023-03-18T07:43:17.196Z,4.62
2023-03-18T07:45:44.316Z,4.76
2023-03-18T07:48:11.178Z,4.88
2023-03-18T07:50:37.657Z,5.01
2023-03-18T07:53:04.078Z,5.16
2023-03-18T07:55:31.327Z,5.26
2023-03-18T07:57:58.997Z,5.38
2023-03-18T08:00:25.611Z,5.49
2023-03-18T08:02:52.275Z,5.60
2023-03-18T08:05:19.383Z,5.70
2023-03-18T08:07:45.934Z,5.80
2023-03-18T08:10:14.470Z,5.88
2023-03-18T08:12:52.552Z,5.97
2023-03-18T08:15:21.598Z,6.06
2023-03-18T08:17:48.377Z,6.13
2023-03-18T08:20:15.309Z,6.20
2023-03-18T08:22:41.805Z,6.27
2023-03-18T08:25:08.908Z,6.35
2023-03-18T08:27:36.024Z,6.42
2023-03-18T08:30:03.944Z,6.48
2023-03-18T08:32:31.886Z,6.54
2023-03-18T08:34:58.897Z,6.57
2023-03-18T08:37:25.378Z,6.62
2023-03-18T08:39:52.026Z,6.70
2023-03-18T08:42:19.012Z,6.77
2023-03-18T08:44:45.982Z,6.84
2023-03-18T08:47:12.901Z,6.89
2023-03-18T08:49:39.523Z,6.94
2023-03-18T08:52:06.305Z,7.00
2023-03-18T08:54:32.830Z,7.05
2023-03-18T08:57:00.030Z,7.10
2023-03-18T08:59:26.982Z,7.17
2023-03-18T09:01:53.415Z,7.24
2023-03-18T09:04:19.870Z,7.34
2023-03-18T09:06:48.145Z,7.40
2023-03-18T09:09:15.149Z,7.47
2023-03-18T09:11:42.116Z,7.54
2023-03-18T09:14:09.001Z,7.60
2023-03-18T09:16:35.733Z,7.68
2023-03-18T09:19:02.765Z,7.79
2023-03-18T09:21:29.277Z,7.87
2023-03-18T09:23:55.934Z,7.91
2023-03-18T09:26:23.330Z,7.95
2023-03-18T09:28:50.285Z,8.00
2023-03-18T09:31:17.470Z,8.03
2023-03-18T09:33:47.203Z,8.06
2023-03-18T09:36:14.138Z,8.11
2023-03-18T09:38:41.925Z,8.14
2023-03-18T09:41:22.701Z,8.20
2023-03-18T09:43:58.428Z,8.27
2023-03-18T09:46:35.403Z,8.31
2023-03-18T09:49:40.884Z,8.37
2023-03-18T09:52:37.036Z,8.43
2023-03-18T09:55:12.558Z,8.50
2023-03-18T09:57:43.660Z,8.55
2023-03-18T10:00:23.629Z,8.62
2023-03-18T10:03:11.117Z,8.68
2023-03-18T10:05:51.410Z,8.73
2023-03-18T10:08:39.148Z,8.76
2023-03-18T10:11:13.532Z,8.80
2023-03-18T10:13:46.206Z,8.84
2023-03-18T10:16:21.134Z,8.88
2023-03-18T10:18:47.670Z,8.93
2023-03-18T10:21:51.850Z,8.98
2023-03-18T10:24:35.439Z,9.09
2023-03-18T10:27:21.812Z,9.14
2023-03-18T10:29:54.122Z,9.19
2023-03-18T10:32:58.343Z,9.22
2023-03-18T10:35:45.067Z,9.26
2023-03-18T10:38:29.137Z,9.31
2023-03-18T10:40:55.862Z,9.33
2023-03-18T10:43:27.499Z,9.38
2023-03-18T10:46:03.185Z,9.45
2023-03-18T10:48:36.837Z,9.48
2023-03-18T10:52:07.921Z,9.50
2023-03-18T10:54:49.680Z,9.58
2023-03-18T10:57:17.970Z,9.61
2023-03-18T10:59:45.429Z,9.63
2023-03-18T11:02:34.331Z,9.68
2023-03-18T11:05:10.853Z,9.74
2023-03-18T11:07:55.189Z,9.80
2023-03-18T11:10:27.108Z,9.85
2023-03-18T11:13:01.817Z,9.89
2023-03-18T11:15:35.622Z,9.95
2023-03-18T11:18:02.694Z,10.03
2023-03-18T11:20:43.380Z,10.10
2023-03-18T11:23:19.994Z,10.16
2023-03-18T11:25:50.604Z,10.21
2023-03-18T11:28:26.590Z,10.25
2023-03-18T11:30:57.067Z,10.29
2023-03-18T11:33:26.359Z,10.34
2023-03-18T11:35:57.624Z,10.39
2023-03-18T11:38:28.005Z,10.43
2023-03-18T11:41:16.426Z,10.41
2023-03-18T11:43:55.676Z,10.43
2023-03-18T11:46:25.825Z,10.50
2023-03-18T11:48:52.397Z,10.52
2023-03-18T11:51:42.243Z,10.57
2023-03-18T11:54:14.947Z,10.60
2023-03-18T11:56:44.987Z,10.64
2023-03-18T11:59:14.358Z,10.71
2023-03-18T12:01:57.016Z,10.77
2023-03-18T12:04:27.085Z,10.81
2023-03-18T12:07:26.807Z,10.85
2023-03-18T12:10:12.355Z,10.87
2023-03-18T12:12:44.917Z,10.87
2023-03-18T12:15:37.869Z,10.87
2023-03-18T12:18:25.002Z,10.92
2023-03-18T12:20:53.489Z,10.98
2023-03-18T12:23:29.410Z,11.01
2023-03-18T12:26:10.619Z,11.02
2023-03-18T12:29:01.589Z,11.04
2023-03-18T12:32:04.292Z,11.07
2023-03-18T12:34:52.642Z,11.12
2023-03-18T12:38:04.246Z,11.16
2023-03-18T12:40:44.805Z,11.19
2023-03-18T12:43:26.535Z,11.25
2023-03-18T12:46:19.216Z,11.30
2023-03-18T12:49:24.731Z,11.31
2023-03-18T12:52:05.750Z,11.31
2023-03-18T12:54:53.230Z,11.30
2023-03-18T12:57:24.071Z,11.27
2023-03-18T13:00:09.806Z,11.28
2023-03-18T13:02:43.327Z,11.26
2023-03-18T13:05:20.005Z,11.25
2023-03-18T13:07:53.503Z,11.23
2023-03-18T13:10:23.060Z,11.22
2023-03-18T13:12:57.386Z,11.22
2023-03-18T13:15:35.340Z,11.20
2023-03-18T13:18:27.618Z,11.19
2023-03-18T13:20:58.971Z,11.16
2023-03-18T13:23:51.816Z,11.14
2023-03-18T13:26:56.347Z,11.15
2023-03-18T13:32:50.618Z,11.21
2023-03-18T13:35:31.874Z,11.23
2023-03-18T13:38:09.451Z,11.23
2023-03-18T13:40:42.647Z,11.22
2023-03-18T13:43:14.975Z,11.20
2023-03-18T13:45:50.722Z,11.22
2023-03-18T13:48:27.352Z,11.26
2023-03-18T13:50:56.884Z,11.28
2023-03-18T13:53:31.378Z,11.29
2023-03-18T13:55:57.813Z,11.28
2023-03-18T13:58:29.789Z,11.27
2023-03-18T14:01:02.606Z,11.27
2023-03-18T14:03:49.728Z,11.25
2023-03-18T14:06:16.139Z,11.21
2023-03-18T14:09:21.186Z,11.18
2023-03-18T14:12:19.957Z,11.12
2023-03-18T14:15:03.433Z,11.08
2023-03-18T14:17:48.422Z,11.03
2023-03-18T14:20:15.535Z,10.99
2023-03-18T14:22:48.055Z,10.96
2023-03-18T14:25:17.324Z,10.93
2023-03-18T14:27:57.819Z,10.91
2023-03-18T14:30:31.274Z,10.91
2023-03-18T14:33:20.128Z,10.90
2023-03-18T14:36:05.061Z,10.89
2023-03-18T14:38:45.984Z,10.86
2023-03-18T14:41:22.057Z,10.86
2023-03-18T14:44:21.498Z,10.85
2023-03-18T14:46:57.755Z,10.84
2023-03-18T14:50:03.473Z,10.85
2023-03-18T14:52:35.817Z,10.89
2023-03-18T14:55:08.471Z,10.89
2023-03-18T14:57:36.039Z,10.88
2023-03-18T15:00:06.050Z,10.87
2023-03-18T15:02:37.393Z,10.86
2023-03-18T15:05:05.869Z,10.84
2023-03-18T15:07:38.356Z,10.81
2023-03-18T15:10:13.164Z,10.79
2023-03-18T15:12:40.122Z,10.75
2023-03-18T15:15:13.178Z,10.74
2023-03-18T15:17:39.674Z,10.71
2023-03-18T15:20:12.195Z,10.67
2023-03-18T15:22:39.391Z,10.64
2023-03-18T15:25:10.556Z,10.62
2023-03-18T15:27:37.735Z,10.62
2023-03-18T15:30:06.637Z,10.61
2023-03-18T15:32:45.111Z,10.61
2023-03-18T15:35:26.010Z,10.60
2023-03-18T15:38:26.328Z,10.59
2023-03-18T15:41:11.779Z,10.56
2023-03-18T15:43:43.340Z,10.52
2023-03-18T15:46:25.168Z,10.47
2023-03-18T15:48:57.023Z,10.43
2023-03-18T15:51:29.391Z,10.39
2023-03-18T15:54:02.596Z,10.33
2023-03-18T15:56:32.395Z,10.26
2023-03-18T15:59:08.445Z,10.20
2023-03-18T16:01:35.798Z,10.16
2023-03-18T16:04:06.010Z,10.12
2023-03-18T16:06:33.855Z,10.07
2023-03-18T16:09:01.301Z,10.02
2023-03-18T16:11:29.350Z,9.97
2023-03-18T16:13:56.137Z,9.91
2023-03-18T16:16:27.276Z,9.85
2023-03-18T16:18:53.977Z,9.80
2023-03-18T16:21:20.504Z,9.73
2023-03-18T16:23:47.769Z,9.66
2023-03-18T16:26:16.798Z,9.59
2023-03-18T16:28:47.109Z,9.51
2023-03-18T16:31:15.044Z,9.43
2023-03-18T16:33:41.980Z,9.36
2023-03-18T16:36:25.161Z,9.28
2023-03-18T16:38:52.024Z,9.17
2023-03-18T16:41:19.234Z,9.09
2023-03-18T16:43:48.473Z,9.00
2023-03-18T16:46:16.751Z,8.90
2023-03-18T16:48:43.245Z,8.83
2023-03-18T16:51:10.112Z,8.76
2023-03-18T16:53:36.504Z,8.70
2023-03-18T16:56:08.189Z,8.64
2023-03-18T16:58:35.961Z,8.59
2023-03-18T17:01:06.563Z,8.53
2023-03-18T17:03:34.309Z,8.48
2023-03-18T17:06:01.371Z,8.42
2023-03-18T17:08:27.813Z,8.36
2023-03-18T17:10:57.719Z,8.29
2023-03-18T17:13:27.836Z,8.22
2023-03-18T17:15:54.911Z,8.17
2023-03-18T17:18:24.253Z,8.12
2023-03-18T17:20:51.385Z,8.08
2023-03-18T17:23:26.619Z,8.03
2023-03-18T17:25:56.224Z,7.99
2023-03-18T17:28:33.829Z,7.94
2023-03-18T17:31:00.487Z,7.89
2023-03-18T17:33:32.115Z,7.84
2023-03-18T17:36:01.213Z,7.81
2023-03-18T17:38:30.056Z,7.78
2023-03-18T17:40:58.115Z,7.75
2023-03-18T17:43:35.913Z,7.71
2023-03-18T17:46:04.331Z,7.68
2023-03-18T17:48:33.937Z,7.65
2023-03-18T17:51:04.137Z,7.62
2023-03-18T17:53:39.318Z,7.59
2023-03-18T17:56:09.878Z,7.56
2023-03-18T17:58:36.520Z,7.54
2023-03-18T18:01:11.982Z,7.51
2023-03-18T18:03:39.913Z,7.49
2023-03-18T18:06:07.684Z,7.47
2023-03-18T18:08:34.126Z,7.44
2023-03-18T18:11:17.109Z,7.40
2023-03-18T18:13:43.746Z,7.38
2023-03-18T18:16:10.346Z,7.36
2023-03-18T18:18:36.992Z,7.33
2023-03-18T18:21:10.587Z,7.30
2023-03-18T18:23:38.410Z,7.28
2023-03-18T18:26:11.587Z,7.26
2023-03-18T18:28:40.453Z,7.23
2023-03-18T18:31:10.160Z,7.21
2023-03-18T18:33:39.002Z,7.17
2023-03-18T18:36:06.367Z,7.13
2023-03-18T18:38:33.896Z,7.11
2023-03-18T18:41:00.875Z,7.09
2023-03-18T18:43:30.387Z,7.07
2023-03-18T18:45:57.874Z,7.05
2023-03-18T18:48:33.527Z,7.02
2023-03-18T18:51:05.447Z,6.99
2023-03-18T18:53:38.964Z,6.97
2023-03-18T18:56:22.925Z,6.95
2023-03-18T18:58:50.408Z,6.93
2023-03-18T19:01:18.246Z,6.90
2023-03-18T19:03:46.308Z,6.88
2023-03-18T19:06:25.484Z,6.86
2023-03-18T19:08:54.779Z,6.85
2023-03-18T19:11:23.996Z,6.84
2023-03-18T19:13:53.148Z,6.83
2023-03-18T19:16:33.006Z,6.82
2023-03-18T19:18:59.837Z,6.79
2023-03-18T19:21:27.271Z,6.76
2023-03-18T19:23:54.342Z,6.74
2023-03-18T19:26:21.411Z,6.72
2023-03-18T19:29:00.478Z,6.68
2023-03-18T19:31:34.307Z,6.65
2023-03-18T19:34:02.104Z,6.62
2023-03-18T19:36:31.790Z,6.57
2023-03-18T19:39:00.813Z,6.53
2023-03-18T19:41:28.500Z,6.49
2023-03-18T19:44:01.541Z,6.46
2023-03-18T19:46:38.414Z,6.43
2023-03-18T19:49:23.437Z,6.39
2023-03-18T19:51:51.809Z,6.37
2023-03-18T19:54:24.644Z,6.35
2023-03-18T19:56:53.853Z,6.32
2023-03-18T19:59:23.568Z,6.31
2023-03-18T20:01:51.325Z,6.30
2023-03-18T20:04:22.441Z,6.29
2023-03-18T20:06:50.000Z,6.28
2023-03-18T20:09:19.548Z,6.26
2023-03-18T20:11:49.866Z,6.26
2023-03-18T20:14:27.451Z,6.24
2023-03-18T20:16:55.743Z,6.22
2023-03-18T20:19:22.322Z,6.22
2023-03-18T20:21:49.006Z,6.21
2023-03-18T20:24:18.781Z,6.20
2023-03-18T20:26:45.747Z,6.17
2023-03-18T20:29:18.394Z,6.16
2023-03-18T20:31:45.744Z,6.13
2023-03-18T20:34:12.303Z,6.12
2023-03-18T20:36:40.015Z,6.12
2023-03-18T20:39:13.640Z,6.10
2023-03-18T20:41:40.593Z,6.11
2023-03-18T20:44:11.817Z,6.11
2023-03-18T20:46:39.847Z,6.11
2023-03-18T20:49:06.800Z,6.10
2023-03-18T20:51:37.360Z,6.11
2023-03-18T20:54:18.465Z,6.13
2023-03-18T20:56:46.878Z,6.14
2023-03-18T20:59:14.074Z,6.14
2023-03-18T21:01:41.241Z,6.16
2023-03-18T21:04:12.065Z,6.16
2023-03-18T21:06:40.529Z,6.18
2023-03-18T21:09:09.567Z,6.17
2023-03-18T21:11:37.381Z,6.19
2023-03-18T21:14:06.670Z,6.19
2023-03-18T21:16:37.594Z,6.19
2023-03-18T21:19:04.537Z,6.17
2023-03-18T21:21:37.949Z,6.16
2023-03-18T21:24:26.302Z,6.15
2023-03-18T21:27:05.608Z,6.13
2023-03-18T21:29:33.329Z,6.08
2023-03-18T21:32:01.930Z,6.06
2023-03-18T21:34:29.006Z,6.03
2023-03-18T21:36:55.809Z,6.00
2023-03-18T21:39:22.534Z,5.98
2023-03-18T21:41:49.010Z,5.94
2023-03-18T21:44:15.643Z,5.90
2023-03-18T21:46:43.124Z,5.87
2023-03-18T21:49:10.563Z,5.84
2023-03-18T21:51:40.190Z,5.81
2023-03-18T21:54:18.303Z,5.79
2023-03-18T21:56:45.739Z,5.77
2023-03-18T21:59:12.391Z,5.75
2023-03-18T22:01:39.064Z,5.73
2023-03-18T22:04:06.328Z,5.70
2023-03-18T22:06:33.410Z,5.69
2023-03-18T22:09:00.040Z,5.69
2023-03-18T22:11:27.523Z,5.67
2023-03-18T22:13:54.657Z,5.66
2023-03-18T22:16:21.882Z,5.65
2023-03-18T22:18:48.808Z,5.66
2023-03-18T22:21:23.834Z,5.66
2023-03-18T22:23:51.302Z,5.66
2023-03-18T22:26:19.916Z,5.67
2023-03-18T22:28:52.550Z,5.67
2023-03-18T22:31:25.472Z,5.67
2023-03-18T22:33:55.627Z,5.67
2023-03-18T22:36:23.166Z,5.67
2023-03-18T22:38:49.755Z,5.67
2023-03-18T22:41:28.737Z,5.68
2023-03-18T22:43:57.376Z,5.69
2023-03-18T22:46:24.548Z,5.69
2023-03-18T22:48:51.335Z,5.69
2023-03-18T22:51:29.118Z,5.68
2023-03-18T22:53:56.523Z,5.68
2023-03-18T22:56:23.639Z,5.66
2023-03-18T22:58:51.364Z,5.64
2023-03-18T23:01:27.361Z,5.63
2023-03-18T23:03:53.884Z,5.61
2023-03-18T23:06:23.265Z,5.60
2023-03-18T23:08:50.260Z,5.61
2023-03-18T23:11:16.886Z,5.60
2023-03-18T23:13:47.518Z,5.59
2023-03-18T23:16:17.404Z,5.58
2023-03-18T23:18:44.062Z,5.56
2023-03-18T23:21:19.914Z,5.54
2023-03-18T23:23:47.772Z,5.51
2023-03-18T23:26:15.556Z,5.51
2023-03-18T23:28:44.805Z,5.49
2023-03-18T23:31:13.513Z,5.48
2023-03-18T23:33:40.439Z,5.48
2023-03-18T23:36:08.178Z,5.51
2023-03-18T23:38:34.770Z,5.54
2023-03-18T23:41:01.327Z,5.53
2023-03-18T23:43:27.936Z,5.54
2023-03-18T23:45:56.254Z,5.55
2023-03-18T23:48:23.349Z,5.58
2023-03-18T23:50:50.089Z,5.61
2023-03-18T23:53:16.686Z,5.63
2023-03-18T23:55:43.276Z,5.63
2023-03-18T23:58:10.225Z,5.61
